Time;durP1;ratioP1;P1;durP2;ratioP2;P2;SDS_P1;SDS_P2;PMS_P1;PMS_P2;Temp;Humidity;BMP_temperature;BMP_pressure;BME280_temperature;BME280_humidity;BME280_pressure;Samples;Min_cycle;Max_cycle;Signal;HPM_P1;HPM_P2
2023/09/30 00:02:00;;;;;;;16.98;7.82;;;15.00;99.90;;;;;;4954908;29;20023;-69
2023/09/30 00:04:27;;;;;;;20.10;8.73;;;15.00;99.90;;;;;;4954570;29;20062;-74
2023/09/30 00:06:53;;;;;;;20.55;8.10;;;15.00;99.90;;;;;;4954589;28;20031;-70
2023/09/30 00:09:19;;;;;;;21.25;8.95;;;14.90;99.90;;;;;;4954882;29;20357;-71
2023/09/30 00:11:45;;;;;;;13.90;8.48;;;14.90;99.90;;;;;;4954558;29;20081;-70
2023/09/30 00:14:11;;;;;;;20.88;8.95;;;14.90;99.90;;;;;;4954519;29;20020;-70
2023/09/30 00:16:36;;;;;;;22.45;9.00;;;14.90;99.90;;;;;;4952235;29;20475;-70
2023/09/30 00:19:03;;;;;;;28.33;9.38;;;14.90;99.90;;;;;;4950655;29;20027;-71
2023/09/30 00:21:29;;;;;;;18.83;8.93;;;14.90;99.90;;;;;;4954251;29;20040;-70
2023/09/30 00:23:55;;;;;;;17.38;9.52;;;15.00;99.90;;;;;;4954550;29;20090;-70
2023/09/30 00:26:22;;;;;;;19.77;9.25;;;14.90;99.90;;;;;;4954511;29;20035;-70
2023/09/30 00:28:48;;;;;;;19.98;8.82;;;14.90;99.90;;;;;;4954381;29;20062;-69
2023/09/30 00:31:14;;;;;;;18.50;9.48;;;14.90;99.90;;;;;;4954341;29;20031;-72
2023/09/30 00:33:40;;;;;;;23.08;9.13;;;14.90;99.90;;;;;;4953110;29;20376;-70
2023/09/30 00:36:10;;;;;;;21.95;8.18;;;14.80;99.90;;;;;;4952472;29;20560;-69
2023/09/30 00:38:40;;;;;;;16.20;8.65;;;14.80;99.90;;;;;;4953233;29;20027;-72
2023/09/30 00:41:07;;;;;;;15.57;8.73;;;14.80;99.90;;;;;;4924383;29;20118;-69
2023/09/30 00:43:33;;;;;;;16.38;8.00;;;14.70;99.90;;;;;;4954223;29;20015;-71
2023/09/30 00:46:12;;;;;;;18.48;8.02;;;14.70;99.90;;;;;;4952203;29;20122;-70
2023/09/30 00:48:39;;;;;;;23.35;8.25;;;14.70;99.90;;;;;;4954053;29;20491;-70
2023/09/30 00:51:06;;;;;;;18.52;8.85;;;14.70;99.90;;;;;;4936761;29;20082;-70
2023/09/30 00:53:32;;;;;;;23.08;9.50;;;14.70;99.90;;;;;;4936691;29;20020;-70
2023/09/30 00:56:00;;;;;;;17.48;8.50;;;14.70;99.90;;;;;;4952320;29;20062;-70
2023/09/30 00:58:28;;;;;;;20.40;8.25;;;14.60;99.90;;;;;;4954103;29;20486;-70
2023/09/30 01:00:56;;;;;;;20.33;8.75;;;14.60;99.90;;;;;;4949076;29;20029;-70
2023/09/30 01:03:23;;;;;;;16.50;9.75;;;14.60;99.90;;;;;;4936764;29;20027;-70
2023/09/30 01:05:49;;;;;;;14.82;7.78;;;14.60;99.90;;;;;;4921105;28;20130;-70
2023/09/30 01:08:16;;;;;;;27.52;8.68;;;14.60;99.90;;;;;;4955206;29;20054;-70
2023/09/30 01:10:43;;;;;;;18.55;8.13;;;14.60;99.90;;;;;;4957839;29;20479;-70
2023/09/30 01:13:09;;;;;;;15.73;8.27;;;14.60;99.90;;;;;;4957846;29;20034;-69
2023/09/30 01:15:36;;;;;;;15.18;7.13;;;14.40;99.90;;;;;;4956548;29;20150;-70
2023/09/30 01:18:03;;;;;;;17.42;8.68;;;14.40;99.90;;;;;;4956545;29;20031;-70
2023/09/30 01:20:31;;;;;;;17.10;8.27;;;14.40;99.90;;;;;;4957649;29;20114;-70
2023/09/30 01:22:57;;;;;;;16.23;8.23;;;14.40;99.90;;;;;;4957537;29;20356;-71
2023/09/30 01:25:27;;;;;;;14.93;9.05;;;14.40;99.90;;;;;;4957542;29;20032;-71
2023/09/30 01:27:54;;;;;;;15.50;7.88;;;14.40;99.90;;;;;;4957815;29;20023;-73
2023/09/30 01:30:22;;;;;;;14.57;8.63;;;14.40;99.90;;;;;;4952046;29;20046;-74
2023/09/30 01:32:48;;;;;;;16.38;8.85;;;14.40;99.90;;;;;;4940306;29;20074;-70
2023/09/30 01:35:15;;;;;;;18.45;8.23;;;14.40;99.90;;;;;;4957403;29;20036;-69
2023/09/30 01:37:41;;;;;;;17.40;8.68;;;14.20;99.90;;;;;;4957482;29;20034;-69
2023/09/30 01:40:10;;;;;;;14.70;7.47;;;14.20;99.90;;;;;;4957360;29;20075;-70
2023/09/30 01:42:37;;;;;;;14.88;8.05;;;14.20;99.90;;;;;;4956058;29;20031;-70
2023/09/30 01:45:03;;;;;;;15.32;7.63;;;14.20;99.90;;;;;;4955803;29;20491;-70
2023/09/30 01:47:29;;;;;;;15.70;8.13;;;14.10;99.90;;;;;;4951976;29;20491;-70
2023/09/30 01:49:55;;;;;;;19.90;8.82;;;14.20;99.90;;;;;;4957136;29;20033;-70
2023/09/30 01:52:21;;;;;;;18.67;7.95;;;14.10;99.90;;;;;;4957162;29;20086;-69
2023/09/30 01:54:47;;;;;;;13.95;7.25;;;14.00;99.90;;;;;;4957323;29;20066;-71
2023/09/30 01:57:14;;;;;;;14.98;7.75;;;14.10;99.90;;;;;;4957298;29;20046;-70
2023/09/30 01:59:39;;;;;;;22.35;8.20;;;14.10;99.90;;;;;;4928083;29;20545;-71
2023/09/30 02:02:05;;;;;;;18.05;7.15;;;14.20;99.90;;;;;;4955235;29;20043;-70
2023/09/30 02:04:31;;;;;;;18.13;9.15;;;14.10;99.90;;;;;;4955614;29;20075;-69
2023/09/30 02:06:57;;;;;;;15.05;7.78;;;14.10;99.90;;;;;;4956808;29;20427;-71
2023/09/30 02:09:23;;;;;;;23.30;8.45;;;14.10;99.90;;;;;;4956797;29;20019;-70
2023/09/30 02:11:48;;;;;;;14.82;7.80;;;14.00;99.90;;;;;;4955686;29;20055;-69
2023/09/30 02:14:14;;;;;;;15.07;7.97;;;14.00;99.90;;;;;;4955498;29;20023;-70
2023/09/30 02:16:40;;;;;;;17.77;7.63;;;14.00;99.90;;;;;;4955394;29;20450;-69
2023/09/30 02:19:06;;;;;;;19.42;8.20;;;14.00;99.90;;;;;;4954461;28;20047;-70
2023/09/30 02:21:32;;;;;;;14.75;7.22;;;14.00;99.90;;;;;;4955593;29;20170;-71
2023/09/30 02:23:58;;;;;;;17.50;8.63;;;14.00;99.90;;;;;;4955006;29;20019;-71
2023/09/30 02:26:25;;;;;;;14.18;7.57;;;14.10;99.90;;;;;;4955185;29;20047;-70
2023/09/30 02:28:52;;;;;;;17.20;7.78;;;13.90;99.90;;;;;;4956578;29;20016;-69
2023/09/30 02:31:19;;;;;;;16.20;7.70;;;13.90;99.90;;;;;;4956523;29;20031;-69
2023/09/30 02:33:45;;;;;;;18.73;8.88;;;13.80;99.90;;;;;;4926599;29;20032;-69
2023/09/30 02:36:12;;;;;;;16.33;8.30;;;13.70;99.90;;;;;;4956302;29;20054;-71
2023/09/30 02:38:38;;;;;;;15.05;9.02;;;13.70;99.90;;;;;;4954639;29;20031;-70
2023/09/30 02:41:05;;;;;;;18.00;9.13;;;13.80;99.90;;;;;;4954926;29;20126;-69
2023/09/30 02:43:30;;;;;;;16.58;8.45;;;13.80;99.90;;;;;;4956226;29;20019;-69
2023/09/30 02:45:56;;;;;;;13.52;7.45;;;13.70;99.90;;;;;;4955930;29;20046;-69
2023/09/30 02:48:23;;;;;;;14.68;7.47;;;13.80;99.90;;;;;;4954525;29;20031;-70
2023/09/30 02:50:48;;;;;;;13.32;8.23;;;13.80;99.90;;;;;;4956115;29;20031;-69
2023/09/30 02:53:14;;;;;;;18.42;8.00;;;13.80;99.90;;;;;;4955973;29;20468;-70
2023/09/30 02:55:41;;;;;;;15.30;8.38;;;13.70;99.90;;;;;;4956155;29;20503;-69
2023/09/30 02:58:08;;;;;;;18.88;8.20;;;13.80;99.90;;;;;;4955824;29;20409;-69
2023/09/30 03:00:35;;;;;;;19.00;8.50;;;13.80;99.90;;;;;;4924294;29;20036;-70
2023/09/30 03:03:02;;;;;;;17.50;9.20;;;13.80;99.90;;;;;;4954582;29;20020;-73
2023/09/30 03:05:30;;;;;;;23.42;8.45;;;13.90;99.90;;;;;;4956075;29;20081;-72
2023/09/30 03:07:56;;;;;;;19.27;8.38;;;13.90;99.90;;;;;;4955710;29;20424;-70
2023/09/30 03:10:26;;;;;;;17.67;7.85;;;13.80;99.90;;;;;;4938719;29;20035;-70
2023/09/30 03:12:55;;;;;;;18.70;8.95;;;13.90;99.90;;;;;;4955569;29;20027;-69
2023/09/30 03:15:23;;;;;;;16.90;8.68;;;13.90;99.90;;;;;;4955705;29;20034;-69
2023/09/30 03:17:49;;;;;;;14.68;8.50;;;14.00;99.90;;;;;;4955498;29;20070;-70
2023/09/30 03:20:19;;;;;;;13.48;8.30;;;14.00;99.90;;;;;;4955756;29;20039;-70
2023/09/30 03:22:47;;;;;;;15.82;8.35;;;14.00;99.90;;;;;;4953668;29;20027;-70
2023/09/30 03:25:17;;;;;;;16.33;7.97;;;14.00;99.90;;;;;;4956062;29;20391;-70
2023/09/30 03:27:43;;;;;;;15.45;8.52;;;14.00;99.90;;;;;;4938994;29;20483;-70
2023/09/30 03:30:11;;;;;;;15.95;9.10;;;14.00;99.90;;;;;;4955164;28;20027;-70
2023/09/30 03:32:37;;;;;;;19.90;8.82;;;14.00;99.90;;;;;;4956056;29;20031;-70
2023/09/30 03:35:10;;;;;;;12.18;7.22;;;14.00;99.90;;;;;;4955255;29;20498;-70
2023/09/30 03:37:39;;;;;;;18.08;8.88;;;14.00;99.90;;;;;;4955773;29;20035;-70
2023/09/30 03:40:12;;;;;;;25.73;9.77;;;13.90;99.90;;;;;;4955648;29;20038;-71
2023/09/30 03:42:39;;;;;;;13.38;8.00;;;14.00;99.90;;;;;;4956020;29;20110;-69
2023/09/30 03:45:09;;;;;;;15.45;7.38;;;14.00;99.90;;;;;;4955387;29;20043;-70
2023/09/30 03:47:39;;;;;;;14.32;8.23;;;13.90;99.90;;;;;;4945003;29;20106;-69
2023/09/30 03:50:12;;;;;;;18.20;8.77;;;13.90;99.90;;;;;;4954396;29;20039;-72
2023/09/30 03:52:39;;;;;;;20.15;8.73;;;13.90;99.90;;;;;;4955566;29;20202;-70
2023/09/30 03:55:05;;;;;;;20.75;8.30;;;13.90;99.90;;;;;;4955629;29;20436;-70
2023/09/30 03:57:33;;;;;;;16.00;7.57;;;13.90;99.90;;;;;;4955697;29;20078;-69
2023/09/30 04:00:06;;;;;;;18.20;7.95;;;13.80;99.90;;;;;;4955389;29;20031;-70
2023/09/30 04:02:38;;;;;;;16.85;8.70;;;13.80;99.90;;;;;;4954133;28;20106;-69
2023/09/30 04:05:05;;;;;;;20.23;7.97;;;13.80;99.90;;;;;;4955175;29;20476;-69
2023/09/30 04:07:32;;;;;;;17.85;7.85;;;13.80;99.90;;;;;;4955069;29;20024;-70
2023/09/30 04:10:01;;;;;;;15.93;8.23;;;13.80;99.90;;;;;;4955130;29;20035;-70
2023/09/30 04:12:26;;;;;;;22.50;9.38;;;13.70;99.90;;;;;;4952845;29;20074;-71
2023/09/30 04:14:52;;;;;;;15.60;8.18;;;13.70;99.90;;;;;;4944786;29;20464;-69
2023/09/30 04:17:18;;;;;;;16.90;8.23;;;13.70;99.90;;;;;;4955426;29;20039;-70
2023/09/30 04:19:45;;;;;;;19.08;9.02;;;13.70;99.90;;;;;;4955061;29;20510;-72
2023/09/30 04:22:12;;;;;;;18.98;8.55;;;13.60;99.90;;;;;;4955211;29;20450;-70
2023/09/30 04:24:39;;;;;;;16.80;8.57;;;13.60;99.90;;;;;;4953777;29;20143;-72
2023/09/30 04:27:07;;;;;;;19.92;8.45;;;13.50;99.90;;;;;;4950757;29;20118;-69
2023/09/30 04:29:34;;;;;;;17.42;7.25;;;13.60;99.90;;;;;;4954949;29;20036;-70
2023/09/30 04:32:00;;;;;;;13.90;7.25;;;13.50;99.90;;;;;;4937443;29;20071;-69
2023/09/30 04:34:28;;;;;;;15.20;8.05;;;13.50;99.90;;;;;;4955046;29;20043;-70
2023/09/30 04:36:54;;;;;;;15.40;8.32;;;13.50;99.90;;;;;;4943832;29;20027;-72
2023/09/30 04:39:20;;;;;;;15.98;8.77;;;13.50;99.90;;;;;;4954964;29;20054;-70
2023/09/30 04:41:46;;;;;;;25.58;9.77;;;13.40;99.90;;;;;;4954754;28;20491;-72
2023/09/30 04:44:12;;;;;;;24.60;9.73;;;13.30;99.90;;;;;;4930401;29;20040;-72
2023/09/30 04:46:45;;;;;;;18.30;9.43;;;13.40;99.90;;;;;;4954385;29;20054;-71
2023/09/30 04:49:15;;;;;;;20.50;9.75;;;13.40;99.90;;;;;;4947523;29;20040;-72
2023/09/30 04:51:41;;;;;;;19.20;9.52;;;13.40;99.90;;;;;;4933213;29;20036;-70
2023/09/30 04:54:08;;;;;;;15.85;8.35;;;13.50;99.90;;;;;;4933002;29;20476;-73
2023/09/30 04:56:36;;;;;;;21.55;9.57;;;13.50;99.90;;;;;;4934143;29;20039;-73
2023/09/30 04:59:04;;;;;;;21.60;9.70;;;13.60;99.90;;;;;;4948210;29;20467;-73
2023/09/30 05:01:30;;;;;;;22.30;9.85;;;14.00;99.90;;;;;;4952215;29;20080;-74
2023/09/30 05:03:55;;;;;;;22.38;8.63;;;14.30;99.90;;;;;;4955057;29;20051;-72
2023/09/30 05:06:21;;;;;;;18.15;8.77;;;14.60;99.90;;;;;;4930256;29;20403;-71
2023/09/30 05:08:47;;;;;;;20.08;9.25;;;14.90;99.90;;;;;;4951041;29;20027;-70
2023/09/30 05:11:14;;;;;;;16.38;9.43;;;15.20;99.90;;;;;;4953792;29;20109;-70
2023/09/30 05:13:40;;;;;;;20.55;9.75;;;15.40;99.90;;;;;;4944304;29;20036;-73
2023/09/30 05:16:07;;;;;;;18.17;9.50;;;15.80;99.90;;;;;;4942532;29;20046;-70
2023/09/30 05:18:33;;;;;;;17.50;9.77;;;16.20;99.90;;;;;;4948834;29;20464;-71
2023/09/30 05:21:00;;;;;;;21.30;10.02;;;16.40;99.90;;;;;;4954890;29;20027;-71
2023/09/30 05:23:26;;;;;;;18.02;10.65;;;16.80;99.90;;;;;;4954598;29;20027;-71
2023/09/30 05:25:52;;;;;;;19.55;11.38;;;17.10;99.90;;;;;;4954466;29;20479;-74
2023/09/30 05:28:20;;;;;;;17.35;10.07;;;17.40;99.90;;;;;;4954434;29;20155;-72
2023/09/30 05:30:46;;;;;;;19.70;8.82;;;17.50;99.90;;;;;;4954513;29;20032;-70
2023/09/30 05:33:14;;;;;;;21.00;9.13;;;17.70;99.90;;;;;;4954368;29;20139;-71
2023/09/30 05:35:43;;;;;;;16.38;8.40;;;17.80;99.90;;;;;;4954354;29;20390;-69
2023/09/30 05:38:09;;;;;;;20.67;8.65;;;18.10;99.90;;;;;;4954402;29;20035;-69
2023/09/30 05:40:36;;;;;;;20.23;7.63;;;18.40;99.90;;;;;;4954495;29;20031;-71
2023/09/30 05:43:02;;;;;;;18.25;8.30;;;18.80;99.90;;;;;;4954032;29;20102;-71
2023/09/30 05:45:34;;;;;;;13.48;7.45;;;19.10;99.90;;;;;;4954207;29;20043;-71
2023/09/30 05:48:04;;;;;;;19.23;7.65;;;19.20;99.90;;;;;;4953413;29;20134;-69
2023/09/30 05:50:31;;;;;;;16.48;8.02;;;19.00;99.90;;;;;;4954287;29;20039;-71
2023/09/30 05:52:57;;;;;;;17.38;7.28;;;18.50;99.90;;;;;;4954616;28;20050;-71
2023/09/30 05:55:25;;;;;;;17.95;8.48;;;18.30;99.90;;;;;;4956975;29;20386;-71
2023/09/30 05:57:52;;;;;;;17.38;8.40;;;17.90;99.90;;;;;;4943374;28;20034;-71
2023/09/30 06:00:22;;;;;;;18.55;8.38;;;17.70;99.90;;;;;;4957011;29;20031;-74
2023/09/30 06:02:51;;;;;;;16.48;7.75;;;17.60;99.90;;;;;;4954010;29;20032;-69
2023/09/30 06:05:18;;;;;;;19.25;8.25;;;17.40;99.90;;;;;;4950379;29;20046;-68
2023/09/30 06:07:47;;;;;;;20.38;8.90;;;17.40;99.90;;;;;;4953483;29;20032;-69
2023/09/30 06:10:15;;;;;;;14.68;8.82;;;17.40;99.90;;;;;;4948202;29;20476;-73
2023/09/30 06:12:41;;;;;;;19.20;9.23;;;17.40;99.90;;;;;;4955997;29;20030;-69
2023/09/30 06:15:08;;;;;;;15.13;9.13;;;17.30;99.90;;;;;;4952701;29;20027;-68
2023/09/30 06:17:34;;;;;;;17.80;8.85;;;17.10;99.90;;;;;;4955442;29;20384;-70
2023/09/30 06:20:08;;;;;;;23.58;9.20;;;16.90;99.90;;;;;;4957415;29;20038;-71
2023/09/30 06:22:34;;;;;;;21.38;9.05;;;17.00;99.90;;;;;;4957440;29;20476;-70
2023/09/30 06:25:00;;;;;;;20.02;9.60;;;17.10;99.90;;;;;;4957040;29;20041;-69
2023/09/30 06:27:26;;;;;;;20.02;10.55;;;17.20;99.90;;;;;;4956077;29;20033;-72
2023/09/30 06:29:51;;;;;;;17.95;10.27;;;17.10;99.90;;;;;;4957314;29;20027;-72
2023/09/30 06:32:18;;;;;;;18.10;9.20;;;17.20;99.90;;;;;;4956940;29;20031;-70
2023/09/30 06:34:44;;;;;;;20.90;10.05;;;17.30;99.90;;;;;;4957202;29;20027;-72
2023/09/30 06:37:10;;;;;;;21.55;10.50;;;17.30;99.90;;;;;;4956290;29;20050;-72
2023/09/30 06:39:35;;;;;;;17.70;8.02;;;17.70;99.90;;;;;;4956698;29;20053;-73
2023/09/30 06:42:01;;;;;;;18.25;8.00;;;17.70;99.90;;;;;;4939541;29;20526;-71
2023/09/30 06:44:28;;;;;;;18.27;7.15;;;17.80;99.90;;;;;;4932130;29;20035;-72
2023/09/30 06:46:54;;;;;;;14.55;7.90;;;17.80;99.90;;;;;;4934841;29;20558;-72
2023/09/30 06:49:20;;;;;;;21.05;8.27;;;17.90;99.90;;;;;;4955148;29;20035;-73
2023/09/30 06:51:47;;;;;;;17.30;9.07;;;18.10;99.90;;;;;;4955927;29;20114;-70
2023/09/30 06:54:13;;;;;;;18.55;9.10;;;18.20;99.90;;;;;;4956280;29;20110;-69
2023/09/30 06:56:39;;;;;;;23.50;11.90;;;18.20;99.90;;;;;;4954434;29;20531;-70
2023/09/30 06:59:06;;;;;;;27.00;14.32;;;18.20;99.90;;;;;;4956931;29;20023;-72
2023/09/30 07:01:32;;;;;;;19.70;12.40;;;18.30;99.90;;;;;;4954627;29;20026;-72
2023/09/30 07:03:58;;;;;;;22.27;11.40;;;18.40;99.90;;;;;;4949002;28;20439;-72
2023/09/30 07:06:24;;;;;;;18.55;10.40;;;18.60;99.90;;;;;;4956021;29;20067;-70
2023/09/30 07:08:50;;;;;;;22.08;9.90;;;18.70;99.90;;;;;;4955681;29;20031;-70
2023/09/30 07:11:16;;;;;;;19.60;10.40;;;18.90;99.90;;;;;;4955813;29;20142;-71
2023/09/30 07:13:42;;;;;;;18.70;10.35;;;19.00;99.90;;;;;;4945288;29;20115;-70
2023/09/30 07:16:08;;;;;;;21.70;10.60;;;19.10;99.90;;;;;;4946053;29;20030;-70
2023/09/30 07:18:34;;;;;;;21.73;11.98;;;19.30;99.90;;;;;;4956322;29;20361;-70
2023/09/30 07:21:00;;;;;;;16.88;8.20;;;19.30;99.90;;;;;;4953481;29;20179;-72
2023/09/30 07:23:29;;;;;;;14.13;7.13;;;19.30;99.90;;;;;;4951472;29;20030;-70
2023/09/30 07:25:55;;;;;;;15.65;7.28;;;19.30;99.90;;;;;;4955243;29;20043;-69
2023/09/30 07:28:21;;;;;;;17.83;9.25;;;19.50;99.90;;;;;;4944531;29;20028;-70
2023/09/30 07:30:46;;;;;;;13.35;7.72;;;19.60;99.90;;;;;;4945766;29;20027;-71
2023/09/30 07:33:12;;;;;;;10.77;6.72;;;19.70;99.90;;;;;;4947926;29;20384;-71
2023/09/30 07:35:38;;;;;;;22.40;7.72;;;19.70;99.90;;;;;;4953901;29;20098;-71
2023/09/30 07:38:04;;;;;;;15.18;7.35;;;19.90;99.90;;;;;;4955542;29;20443;-70
2023/09/30 07:40:30;;;;;;;11.45;7.00;;;20.00;99.90;;;;;;4955079;29;20487;-72
2023/09/30 07:42:56;;;;;;;11.38;7.78;;;20.10;99.90;;;;;;4955500;29;20498;-71
2023/09/30 07:45:22;;;;;;;17.55;8.02;;;20.20;99.90;;;;;;4942448;29;20027;-71
2023/09/30 07:47:49;;;;;;;14.32;8.18;;;20.10;99.90;;;;;;4954947;29;20059;-70
2023/09/30 07:50:15;;;;;;;16.20;8.55;;;20.40;99.90;;;;;;4953206;29;20027;-73
2023/09/30 07:52:42;;;;;;;13.60;7.40;;;20.40;99.90;;;;;;4955429;29;20055;-71
2023/09/30 07:55:09;;;;;;;15.00;7.25;;;20.60;99.90;;;;;;4954523;29;20432;-72
2023/09/30 07:57:35;;;;;;;14.90;7.25;;;20.90;99.90;;;;;;4955115;29;20027;-71
2023/09/30 08:00:02;;;;;;;22.45;8.07;;;20.90;99.90;;;;;;4949492;29;20089;-71
2023/09/30 08:02:36;;;;;;;15.63;7.68;;;20.80;99.90;;;;;;4954706;29;20023;-71
2023/09/30 08:05:02;;;;;;;16.77;8.60;;;21.00;99.90;;;;;;4953046;29;20039;-71
2023/09/30 08:07:28;;;;;;;14.82;8.40;;;21.00;99.90;;;;;;4955419;29;20031;-71
2023/09/30 08:09:54;;;;;;;9.88;6.53;;;21.10;99.90;;;;;;4953928;29;20549;-70
2023/09/30 08:12:21;;;;;;;15.82;7.32;;;21.20;99.90;;;;;;4953413;29;20523;-71
2023/09/30 08:14:46;;;;;;;16.50;7.85;;;21.20;99.90;;;;;;4954893;29;20035;-69
2023/09/30 08:17:12;;;;;;;14.18;7.75;;;21.30;99.90;;;;;;4954733;28;20502;-70
2023/09/30 08:19:38;;;;;;;13.10;7.72;;;21.40;99.90;;;;;;4954893;29;20086;-71
2023/09/30 08:22:04;;;;;;;16.50;8.23;;;21.40;99.90;;;;;;4935297;29;20487;-71
2023/09/30 08:24:30;;;;;;;13.43;7.75;;;21.60;99.90;;;;;;4953566;29;20035;-71
2023/09/30 08:26:56;;;;;;;24.55;9.18;;;21.60;99.70;;;;;;4944682;29;20075;-71
2023/09/30 08:29:22;;;;;;;16.23;8.60;;;21.60;99.60;;;;;;4943131;29;20027;-70
2023/09/30 08:31:50;;;;;;;13.55;7.82;;;21.70;99.40;;;;;;4954462;28;20027;-70
2023/09/30 08:34:17;;;;;;;16.08;8.13;;;;;;;;;;4930668;28;20038;-72
2023/09/30 08:36:43;;;;;;;21.17;8.57;;;21.80;99.90;;;;;;4963218;28;20023;-71
2023/09/30 08:39:10;;;;;;;15.82;7.45;;;22.10;98.20;;;;;;4938188;29;20046;-71
2023/09/30 08:41:36;;;;;;;14.15;7.20;;;;;;;;;;4958250;28;20422;-71
2023/09/30 08:44:03;;;;;;;17.58;7.75;;;22.10;98.40;;;;;;4956199;28;20554;-71
2023/09/30 08:46:32;;;;;;;13.35;7.35;;;22.40;99.30;;;;;;4965024;28;20519;-70
2023/09/30 08:49:03;;;;;;;16.65;7.75;;;22.40;97.20;;;;;;4954115;29;20584;-72
2023/09/30 08:51:30;;;;;;;13.40;7.13;;;22.50;97.10;;;;;;4954196;29;20024;-70
2023/09/30 08:53:57;;;;;;;14.20;7.13;;;22.50;97.40;;;;;;4952890;29;20043;-72
2023/09/30 08:56:32;;;;;;;13.68;7.13;;;22.70;97.60;;;;;;4954855;29;20082;-73
2023/09/30 08:58:59;;;;;;;15.98;7.28;;;22.70;96.60;;;;;;4954638;29;20102;-71
2023/09/30 09:01:27;;;;;;;16.50;7.03;;;23.00;96.60;;;;;;4954327;29;20027;-73
2023/09/30 09:03:55;;;;;;;13.88;6.93;;;23.00;96.40;;;;;;4956056;28;20109;-71
2023/09/30 09:06:25;;;;;;;13.05;6.68;;;23.10;94.10;;;;;;4954440;28;20039;-72
2023/09/30 09:08:51;;;;;;;16.00;8.02;;;23.10;94.90;;;;;;4942238;29;20027;-70
2023/09/30 09:11:17;;;;;;;15.68;8.30;;;23.00;93.80;;;;;;4953739;29;20483;-71
2023/09/30 09:13:55;;;;;;;19.88;7.50;;;23.30;94.70;;;;;;4964637;28;20043;-70
2023/09/30 09:16:22;;;;;;;13.82;6.75;;;23.30;94.40;;;;;;4955127;28;20023;-70
2023/09/30 09:18:51;;;;;;;14.18;7.18;;;23.40;93.00;;;;;;4964887;28;20139;-71
2023/09/30 09:21:27;;;;;;;14.82;6.88;;;23.20;93.80;;;;;;4942913;29;20039;-71
2023/09/30 09:23:53;;;;;;;10.68;6.25;;;23.40;93.90;;;;;;4956205;28;20392;-70
2023/09/30 09:26:26;;;;;;;15.70;7.10;;;23.50;93.60;;;;;;4936157;29;20055;-71
2023/09/30 09:29:00;;;;;;;13.50;7.63;;;23.60;92.70;;;;;;4956568;28;20027;-71
2023/09/30 09:31:28;;;;;;;16.10;7.18;;;23.70;93.40;;;;;;4957967;28;20075;-71
2023/09/30 09:33:54;;;;;;;12.88;6.80;;;23.70;91.60;;;;;;4960538;28;20019;-71
2023/09/30 09:36:20;;;;;;;12.70;6.80;;;23.80;92.10;;;;;;4959884;28;20115;-71
2023/09/30 09:38:53;;;;;;;10.57;6.20;;;23.90;99.90;;;;;;4958651;28;20046;-71
2023/09/30 09:41:22;;;;;;;12.60;6.13;;;23.80;92.20;;;;;;4957399;29;20064;-70
2023/09/30 09:43:50;;;;;;;17.67;7.18;;;23.90;91.10;;;;;;4955419;28;20476;-69
2023/09/30 09:46:17;;;;;;;14.43;6.88;;;23.80;91.60;;;;;;4957159;29;20062;-70
2023/09/30 09:48:46;;;;;;;11.20;5.70;;;23.90;91.30;;;;;;4957681;29;20035;-70
2023/09/30 09:51:13;;;;;;;15.57;5.80;;;24.00;91.70;;;;;;4957838;29;20038;-69
2023/09/30 09:53:41;;;;;;;13.20;6.82;;;24.30;91.20;;;;;;4957348;29;20070;-71
2023/09/30 09:56:11;;;;;;;15.05;6.47;;;24.30;91.50;;;;;;4946942;29;20087;-70
2023/09/30 09:58:40;;;;;;;11.75;6.75;;;24.50;91.40;;;;;;4956434;29;20040;-71
2023/09/30 10:01:06;;;;;;;12.00;6.45;;;24.50;90.90;;;;;;4957756;29;20078;-70
2023/09/30 10:03:32;;;;;;;13.05;6.30;;;24.50;89.00;;;;;;4958775;28;20027;-71
2023/09/30 10:06:02;;;;;;;28.30;7.30;;;24.60;89.30;;;;;;4967053;28;20035;-70
2023/09/30 10:08:37;;;;;;;16.88;6.25;;;24.50;88.00;;;;;;4960893;28;20023;-71
2023/09/30 10:11:04;;;;;;;13.32;7.25;;;24.40;90.70;;;;;;4957458;29;20035;-71
2023/09/30 10:14:03;;;;;;;10.88;6.55;;;24.60;91.00;;;;;;4957181;29;20016;-70
2023/09/30 10:16:50;;;;;;;10.98;6.30;;;24.50;93.70;;;;;;4957081;29;20027;-71
2023/09/30 10:19:20;;;;;;;16.05;7.15;;;24.60;89.30;;;;;;4949036;29;20035;-71
2023/09/30 10:22:20;;;;;;;11.88;6.53;;;24.60;88.40;;;;;;4954626;29;20031;-70
2023/09/30 10:24:47;;;;;;;16.88;7.05;;;24.70;87.20;;;;;;4953750;29;20031;-70
2023/09/30 10:27:22;;;;;;;12.70;6.35;;;24.70;90.00;;;;;;4957134;29;20027;-72
2023/09/30 10:30:13;;;;;;;12.07;5.45;;;25.00;86.70;;;;;;4957333;29;20102;-70
2023/09/30 10:33:06;;;;;;;10.95;5.63;;;25.00;86.10;;;;;;4955562;28;20098;-69
2023/09/30 10:35:31;;;;;;;12.85;5.53;;;24.90;85.90;;;;;;4955965;29;20094;-71
2023/09/30 10:38:22;;;;;;;14.73;6.53;;;25.10;86.90;;;;;;4957037;29;20031;-73
2023/09/30 10:40:52;;;;;;;9.63;5.40;;;25.20;88.20;;;;;;4965343;28;20026;-71
2023/09/30 10:43:37;;;;;;;14.75;7.05;;;25.30;83.90;;;;;;4954508;28;20122;-71
2023/09/30 10:46:25;;;;;;;9.32;5.82;;;25.40;84.10;;;;;;4958493;28;20047;-71
2023/09/30 10:48:52;;;;;;;11.30;5.35;;;25.40;82.60;;;;;;4944219;28;20483;-71
2023/09/30 10:51:21;;;;;;;14.93;5.75;;;25.30;82.80;;;;;;4956104;29;20027;-71
2023/09/30 10:54:00;;;;;;;14.20;6.13;;;25.30;81.70;;;;;;4955970;29;20027;-71
2023/09/30 10:56:33;;;;;;;11.07;5.50;;;25.30;82.10;;;;;;4956454;28;20428;-71
2023/09/30 10:59:01;;;;;;;13.40;6.10;;;25.40;80.60;;;;;;4957312;28;20020;-71
2023/09/30 11:01:32;;;;;;;12.43;5.57;;;25.50;81.00;;;;;;4955927;29;20544;-72
2023/09/30 11:04:03;;;;;;;;;;;25.50;83.40;;;;;;4956284;29;20027;-72
2023/09/30 11:06:29;;;;;;;12.35;6.03;;;25.70;81.90;;;;;;4962649;28;19964;-72
2023/09/30 11:08:59;;;;;;;13.85;5.75;;;;;;;;;;4954970;28;20027;-71
2023/09/30 11:11:35;;;;;;;14.20;6.03;;;25.50;98.90;;;;;;4954806;29;20116;-71
2023/09/30 11:14:01;;;;;;;10.52;5.35;;;25.70;78.70;;;;;;4950729;28;20023;-71
2023/09/30 11:16:28;;;;;;;9.07;5.03;;;25.70;78.50;;;;;;4958856;28;20545;-71
2023/09/30 11:18:54;;;;;;;15.85;5.28;;;25.70;75.40;;;;;;4950903;29;20031;-72
2023/09/30 11:21:20;;;;;;;10.77;5.53;;;25.80;76.20;;;;;;4956640;28;20546;-70
2023/09/30 11:23:46;;;;;;;9.63;5.22;;;25.80;77.10;;;;;;4955932;29;20126;-71
2023/09/30 11:26:13;;;;;;;6.95;4.18;;;25.90;76.20;;;;;;4956102;29;20042;-71
2023/09/30 11:28:42;;;;;;;10.60;5.68;;;25.80;77.70;;;;;;4955781;29;20077;-71
2023/09/30 11:31:13;;;;;;;10.57;5.05;;;25.80;78.90;;;;;;4956000;29;20378;-73
2023/09/30 11:33:53;;;;;;;12.50;5.88;;;25.90;74.10;;;;;;4956009;29;20098;-72
2023/09/30 11:36:22;;;;;;;7.78;4.68;;;25.90;76.70;;;;;;4955600;29;20047;-71
2023/09/30 11:38:49;;;;;;;12.48;5.88;;;26.00;76.90;;;;;;4955735;29;20475;-71
2023/09/30 11:41:18;;;;;;;10.13;4.13;;;26.00;77.20;;;;;;4955950;29;20031;-72
2023/09/30 11:44:12;;;;;;;17.50;4.32;;;26.10;74.10;;;;;;4955508;29;20027;-72
2023/09/30 11:47:04;;;;;;;7.90;4.80;;;26.10;73.80;;;;;;4954256;28;20567;-72
2023/09/30 11:49:34;;;;;;;;;;;26.10;73.10;;;;;;4955755;29;20102;-70
2023/09/30 11:52:02;;;;;;;11.43;5.35;;;26.10;75.30;;;;;;4955134;28;20275;-72
2023/09/30 11:54:30;;;;;;;9.95;5.00;;;26.10;76.90;;;;;;4955292;29;20031;-72
2023/09/30 11:56:56;;;;;;;14.15;5.15;;;26.10;77.50;;;;;;4955519;29;20023;-72
2023/09/30 11:59:22;;;;;;;7.30;4.63;;;26.10;73.70;;;;;;4955326;29;20031;-72
2023/09/30 12:01:48;;;;;;;6.82;4.57;;;26.20;73.50;;;;;;4954390;29;20019;-73
2023/09/30 12:04:17;;;;;;;9.23;5.00;;;26.20;75.70;;;;;;4955379;29;20038;-71
2023/09/30 12:06:43;;;;;;;9.23;5.07;;;26.20;73.10;;;;;;4955687;29;20042;-71
2023/09/30 12:09:13;;;;;;;10.45;5.07;;;26.40;76.10;;;;;;4955467;29;20479;-72
2023/09/30 12:11:39;;;;;;;10.73;5.13;;;26.30;73.90;;;;;;4955117;29;20046;-70
2023/09/30 12:14:06;;;;;;;8.82;4.50;;;26.40;72.90;;;;;;4955012;29;20078;-72
2023/09/30 12:16:32;;;;;;;14.40;4.78;;;26.40;71.20;;;;;;4946228;29;20028;-72
2023/09/30 12:18:58;;;;;;;7.43;4.60;;;26.50;74.10;;;;;;4951435;29;20066;-70
2023/09/30 12:21:24;;;;;;;7.95;4.38;;;26.50;70.20;;;;;;4955245;29;20035;-70
2023/09/30 12:23:51;;;;;;;10.05;4.60;;;26.50;69.10;;;;;;4955113;29;20030;-71
2023/09/30 12:26:19;;;;;;;8.23;4.75;;;26.50;69.60;;;;;;4955302;29;20108;-72
2023/09/30 12:28:46;;;;;;;14.35;5.07;;;26.40;69.60;;;;;;4954983;29;20030;-72
2023/09/30 12:31:13;;;;;;;11.45;4.90;;;26.40;71.30;;;;;;4955177;29;20471;-71
2023/09/30 12:33:40;;;;;;;8.10;4.53;;;26.40;70.30;;;;;;4955015;29;20015;-70
2023/09/30 12:36:07;;;;;;;12.38;5.20;;;;;;;;;;4955074;29;20034;-69
2023/09/30 12:38:33;;;;;;;7.68;4.63;;;26.50;69.60;;;;;;4937433;29;20467;-70
2023/09/30 12:41:00;;;;;;;11.07;5.18;;;26.50;69.50;;;;;;4954727;29;20506;-70
2023/09/30 12:43:26;;;;;;;9.82;4.55;;;26.50;70.50;;;;;;4954539;29;20371;-69